sensor_id;sensor_type;location;lat;lon;timestamp;temperature;humidity
13354;DHT22;6746;50.892;4.064;2023-04-26T00:01:24;3.60;99.90
13354;DHT22;6746;50.892;4.064;2023-04-26T00:04:03;3.60;99.90
13354;DHT22;6746;50.892;4.064;2023-04-26T00:06:41;3.60;99.90
13354;DHT22;6746;50.892;4.064;2023-04-26T00:09:19;3.50;99.90
13354;DHT22;6746;50.892;4.064;2023-04-26T00:11:57;3.40;99.90
13354;DHT22;6746;50.892;4.064;2023-04-26T00:14:36;3.40;99.90
13354;DHT22;6746;50.892;4.064;2023-04-26T00:17:16;3.30;99.90
13354;DHT22;6746;50.892;4.064;2023-04-26T00:19:55;3.30;99.90
13354;DHT22;6746;50.892;4.064;2023-04-26T00:22:35;3.30;99.90
13354;DHT22;6746;50.892;4.064;2023-04-26T00:25:14;3.30;99.90
13354;DHT22;6746;50.892;4.064;2023-04-26T00:28:02;3.30;99.90
13354;DHT22;6746;50.892;4.064;2023-04-26T00:30:49;3.20;99.90
13354;DHT22;6746;50.892;4.064;2023-04-26T00:33:38;3.20;99.90
13354;DHT22;6746;50.892;4.064;2023-04-26T00:36:26;3.20;99.90
13354;DHT22;6746;50.892;4.064;2023-04-26T00:39:10;3.20;99.90
13354;DHT22;6746;50.892;4.064;2023-04-26T00:41:48;3.20;99.90
13354;DHT22;6746;50.892;4.064;2023-04-26T00:44:29;3.10;99.90
13354;DHT22;6746;50.892;4.064;2023-04-26T00:47:07;3.00;99.90
13354;DHT22;6746;50.892;4.064;2023-04-26T00:49:45;3.00;99.90
13354;DHT22;6746;50.892;4.064;2023-04-26T00:52:24;3.00;99.90
13354;DHT22;6746;50.892;4.064;2023-04-26T00:55:05;2.90;99.90
13354;DHT22;6746;50.892;4.064;2023-04-26T00:57:44;2.90;99.90
13354;DHT22;6746;50.892;4.064;2023-04-26T01:00:21;2.80;99.90
13354;DHT22;6746;50.892;4.064;2023-04-26T01:03:00;2.80;99.90
13354;DHT22;6746;50.892;4.064;2023-04-26T01:05:46;2.70;99.90
13354;DHT22;6746;50.892;4.064;2023-04-26T01:08:24;2.70;99.90
13354;DHT22;6746;50.892;4.064;2023-04-26T01:11:08;2.70;99.90
13354;DHT22;6746;50.892;4.064;2023-04-26T01:13:46;2.70;99.90
13354;DHT22;6746;50.892;4.064;2023-04-26T01:16:24;2.60;99.90
13354;DHT22;6746;50.892;4.064;2023-04-26T01:19:08;2.60;99.90
13354;DHT22;6746;50.892;4.064;2023-04-26T01:21:46;2.60;99.90
13354;DHT22;6746;50.892;4.064;2023-04-26T01:24:24;2.60;99.90
13354;DHT22;6746;50.892;4.064;2023-04-26T01:27:02;2.50;99.90
13354;DHT22;6746;50.892;4.064;2023-04-26T01:29:41;2.50;99.90
13354;DHT22;6746;50.892;4.064;2023-04-26T01:32:28;2.40;99.90
13354;DHT22;6746;50.892;4.064;2023-04-26T01:35:16;2.40;99.90
13354;DHT22;6746;50.892;4.064;2023-04-26T01:38:05;2.40;99.90
13354;DHT22;6746;50.892;4.064;2023-04-26T01:40:53;2.40;99.90
13354;DHT22;6746;50.892;4.064;2023-04-26T01:43:41;2.40;99.90
13354;DHT22;6746;50.892;4.064;2023-04-26T01:46:20;2.40;99.90
13354;DHT22;6746;50.892;4.064;2023-04-26T01:48:58;2.30;99.90
13354;DHT22;6746;50.892;4.064;2023-04-26T01:51:39;2.40;99.90
13354;DHT22;6746;50.892;4.064;2023-04-26T01:54:17;2.30;99.90
13354;DHT22;6746;50.892;4.064;2023-04-26T01:56:55;2.30;99.90
13354;DHT22;6746;50.892;4.064;2023-04-26T01:59:34;2.20;99.90
13354;DHT22;6746;50.892;4.064;2023-04-26T02:02:17;2.20;99.90
13354;DHT22;6746;50.892;4.064;2023-04-26T02:04:55;2.20;99.90
13354;DHT22;6746;50.892;4.064;2023-04-26T02:07:33;2.20;99.90
13354;DHT22;6746;50.892;4.064;2023-04-26T02:10:11;2.10;99.90
13354;DHT22;6746;50.892;4.064;2023-04-26T02:12:55;2.10;99.90
13354;DHT22;6746;50.892;4.064;2023-04-26T02:15:33;2.10;99.90
13354;DHT22;6746;50.892;4.064;2023-04-26T02:18:20;2.10;99.90
13354;DHT22;6746;50.892;4.064;2023-04-26T02:21:09;2.10;99.90
13354;DHT22;6746;50.892;4.064;2023-04-26T02:23:56;2.00;99.90
13354;DHT22;6746;50.892;4.064;2023-04-26T02:26:45;2.00;99.90
13354;DHT22;6746;50.892;4.064;2023-04-26T02:29:33;2.00;99.90
13354;DHT22;6746;50.892;4.064;2023-04-26T02:32:21;2.00;99.90
13354;DHT22;6746;50.892;4.064;2023-04-26T02:35:00;2.10;99.90
13354;DHT22;6746;50.892;4.064;2023-04-26T02:37:38;2.10;99.90
13354;DHT22;6746;50.892;4.064;2023-04-26T02:40:26;2.10;99.90
13354;DHT22;6746;50.892;4.064;2023-04-26T02:43:04;2.10;99.90
13354;DHT22;6746;50.892;4.064;2023-04-26T02:45:43;2.10;99.90
13354;DHT22;6746;50.892;4.064;2023-04-26T02:48:21;2.10;99.90
13354;DHT22;6746;50.892;4.064;2023-04-26T02:50:59;2.10;99.90
13354;DHT22;6746;50.892;4.064;2023-04-26T02:53:40;2.10;99.90
13354;DHT22;6746;50.892;4.064;2023-04-26T02:56:18;2.00;99.90
13354;DHT22;6746;50.892;4.064;2023-04-26T02:59:01;2.00;99.90
13354;DHT22;6746;50.892;4.064;2023-04-26T03:01:39;2.00;99.90
13354;DHT22;6746;50.892;4.064;2023-04-26T03:04:20;2.00;99.90
13354;DHT22;6746;50.892;4.064;2023-04-26T03:06:58;2.00;99.90
13354;DHT22;6746;50.892;4.064;2023-04-26T03:09:37;2.00;99.90
13354;DHT22;6746;50.892;4.064;2023-04-26T03:12:15;2.00;99.90
13354;DHT22;6746;50.892;4.064;2023-04-26T03:15:03;2.00;99.90
13354;DHT22;6746;50.892;4.064;2023-04-26T03:17:41;2.00;99.90
13354;DHT22;6746;50.892;4.064;2023-04-26T03:20:20;1.90;99.90
13354;DHT22;6746;50.892;4.064;2023-04-26T03:23:07;1.90;99.90
13354;DHT22;6746;50.892;4.064;2023-04-26T03:25:55;1.90;99.90
13354;DHT22;6746;50.892;4.064;2023-04-26T03:28:44;1.90;99.90
13354;DHT22;6746;50.892;4.064;2023-04-26T03:31:22;1.90;99.90
13354;DHT22;6746;50.892;4.064;2023-04-26T03:34:00;1.80;99.90
13354;DHT22;6746;50.892;4.064;2023-04-26T03:36:44;1.80;99.90
13354;DHT22;6746;50.892;4.064;2023-04-26T03:39:22;1.80;99.90
13354;DHT22;6746;50.892;4.064;2023-04-26T03:42:02;1.80;99.90
13354;DHT22;6746;50.892;4.064;2023-04-26T03:44:41;1.80;99.90
13354;DHT22;6746;50.892;4.064;2023-04-26T03:47:27;1.80;99.90
13354;DHT22;6746;50.892;4.064;2023-04-26T03:50:06;1.80;99.90
13354;DHT22;6746;50.892;4.064;2023-04-26T03:52:52;1.90;99.90
13354;DHT22;6746;50.892;4.064;2023-04-26T03:55:30;1.90;99.90
13354;DHT22;6746;50.892;4.064;2023-04-26T03:58:08;1.90;99.90
13354;DHT22;6746;50.892;4.064;2023-04-26T04:00:46;1.80;99.90
13354;DHT22;6746;50.892;4.064;2023-04-26T04:03:30;1.80;99.90
13354;DHT22;6746;50.892;4.064;2023-04-26T04:06:09;1.90;99.90
13354;DHT22;6746;50.892;4.064;2023-04-26T04:08:57;1.90;99.90
13354;DHT22;6746;50.892;4.064;2023-04-26T04:11:35;1.90;99.90
13354;DHT22;6746;50.892;4.064;2023-04-26T04:14:13;1.90;99.90
13354;DHT22;6746;50.892;4.064;2023-04-26T04:17:02;1.90;99.90
13354;DHT22;6746;50.892;4.064;2023-04-26T04:19:40;1.90;99.90
13354;DHT22;6746;50.892;4.064;2023-04-26T04:22:28;1.90;99.90
13354;DHT22;6746;50.892;4.064;2023-04-26T04:25:00;1.90;99.90
13354;DHT22;6746;50.892;4.064;2023-04-26T04:27:39;2.00;99.90
13354;DHT22;6746;50.892;4.064;2023-04-26T04:30:27;2.00;99.90
13354;DHT22;6746;50.892;4.064;2023-04-26T04:33:15;2.10;99.90
13354;DHT22;6746;50.892;4.064;2023-04-26T04:35:49;2.10;99.90
13354;DHT22;6746;50.892;4.064;2023-04-26T04:38:18;2.10;99.90
13354;DHT22;6746;50.892;4.064;2023-04-26T04:40:52;2.10;99.90
13354;DHT22;6746;50.892;4.064;2023-04-26T04:43:21;2.10;99.90
13354;DHT22;6746;50.892;4.064;2023-04-26T04:45:53;2.20;99.90
13354;DHT22;6746;50.892;4.064;2023-04-26T04:48:22;2.30;99.90
13354;DHT22;6746;50.892;4.064;2023-04-26T04:50:51;2.30;99.90
13354;DHT22;6746;50.892;4.064;2023-04-26T04:53:20;2.40;99.90
13354;DHT22;6746;50.892;4.064;2023-04-26T04:55:49;2.40;99.90
13354;DHT22;6746;50.892;4.064;2023-04-26T04:58:18;2.50;99.90
13354;DHT22;6746;50.892;4.064;2023-04-26T05:00:51;2.50;99.90
13354;DHT22;6746;50.892;4.064;2023-04-26T05:03:24;2.50;99.90
13354;DHT22;6746;50.892;4.064;2023-04-26T05:06:00;2.60;99.90
13354;DHT22;6746;50.892;4.064;2023-04-26T05:08:39;2.60;99.90
13354;DHT22;6746;50.892;4.064;2023-04-26T05:11:17;2.60;99.90
13354;DHT22;6746;50.892;4.064;2023-04-26T05:14:05;2.60;99.90
13354;DHT22;6746;50.892;4.064;2023-04-26T05:16:52;2.70;99.90
13354;DHT22;6746;50.892;4.064;2023-04-26T05:19:20;2.80;99.90
13354;DHT22;6746;50.892;4.064;2023-04-26T05:21:49;2.90;99.90
13354;DHT22;6746;50.892;4.064;2023-04-26T05:24:18;2.90;99.90
13354;DHT22;6746;50.892;4.064;2023-04-26T05:26:50;3.00;99.90
13354;DHT22;6746;50.892;4.064;2023-04-26T05:29:22;3.10;99.90
13354;DHT22;6746;50.892;4.064;2023-04-26T05:31:56;3.20;99.90
13354;DHT22;6746;50.892;4.064;2023-04-26T05:34:44;3.40;99.90
13354;DHT22;6746;50.892;4.064;2023-04-26T05:37:32;3.60;99.90
13354;DHT22;6746;50.892;4.064;2023-04-26T05:40:11;3.70;99.90
13354;DHT22;6746;50.892;4.064;2023-04-26T05:45:18;3.90;99.90
13354;DHT22;6746;50.892;4.064;2023-04-26T05:47:47;3.90;99.90
13354;DHT22;6746;50.892;4.064;2023-04-26T05:50:26;3.90;99.90
13354;DHT22;6746;50.892;4.064;2023-04-26T05:53:06;3.90;99.90
13354;DHT22;6746;50.892;4.064;2023-04-26T05:55:38;4.00;99.90
13354;DHT22;6746;50.892;4.064;2023-04-26T05:58:07;4.00;99.90
13354;DHT22;6746;50.892;4.064;2023-04-26T06:00:36;2.50;99.90
13354;DHT22;6746;50.892;4.064;2023-04-26T06:03:05;4.30;99.90
13354;DHT22;6746;50.892;4.064;2023-04-26T06:05:35;4.60;99.90
13354;DHT22;6746;50.892;4.064;2023-04-26T06:08:03;4.90;99.90
13354;DHT22;6746;50.892;4.064;2023-04-26T06:10:37;5.10;99.90
13354;DHT22;6746;50.892;4.064;2023-04-26T06:13:12;5.30;99.90
13354;DHT22;6746;50.892;4.064;2023-04-26T06:15:51;5.40;99.90
13354;DHT22;6746;50.892;4.064;2023-04-26T06:18:38;5.50;99.90
13354;DHT22;6746;50.892;4.064;2023-04-26T06:21:17;5.50;99.90
13354;DHT22;6746;50.892;4.064;2023-04-26T06:23:45;5.60;99.90
13354;DHT22;6746;50.892;4.064;2023-04-26T06:26:14;5.70;99.90
13354;DHT22;6746;50.892;4.064;2023-04-26T06:28:46;5.70;99.90
13354;DHT22;6746;50.892;4.064;2023-04-26T06:31:17;5.60;99.90
13354;DHT22;6746;50.892;4.064;2023-04-26T06:33:46;5.70;99.90
13354;DHT22;6746;50.892;4.064;2023-04-26T06:36:15;5.70;99.90
13354;DHT22;6746;50.892;4.064;2023-04-26T06:38:49;5.70;99.90
13354;DHT22;6746;50.892;4.064;2023-04-26T06:41:18;5.70;99.90
13354;DHT22;6746;50.892;4.064;2023-04-26T06:43:56;5.80;99.90
13354;DHT22;6746;50.892;4.064;2023-04-26T06:46:25;5.90;99.90
13354;DHT22;6746;50.892;4.064;2023-04-26T06:48:53;6.00;99.90
13354;DHT22;6746;50.892;4.064;2023-04-26T06:51:22;6.20;99.90
13354;DHT22;6746;50.892;4.064;2023-04-26T06:53:51;6.30;99.90
13354;DHT22;6746;50.892;4.064;2023-04-26T06:56:20;6.40;99.90
13354;DHT22;6746;50.892;4.064;2023-04-26T06:59:02;6.40;99.90
13354;DHT22;6746;50.892;4.064;2023-04-26T07:01:38;6.50;99.90
13354;DHT22;6746;50.892;4.064;2023-04-26T07:04:06;6.60;99.90
13354;DHT22;6746;50.892;4.064;2023-04-26T07:06:45;6.70;99.90
13354;DHT22;6746;50.892;4.064;2023-04-26T07:09:30;6.80;99.90
13354;DHT22;6746;50.892;4.064;2023-04-26T07:12:11;6.80;99.90
13354;DHT22;6746;50.892;4.064;2023-04-26T07:14:58;6.90;99.90
13354;DHT22;6746;50.892;4.064;2023-04-26T07:17:46;7.00;99.90
13354;DHT22;6746;50.892;4.064;2023-04-26T07:20:34;7.10;99.90
13354;DHT22;6746;50.892;4.064;2023-04-26T07:23:12;7.10;99.90
13354;DHT22;6746;50.892;4.064;2023-04-26T07:26:02;7.30;99.90
13354;DHT22;6746;50.892;4.064;2023-04-26T07:28:33;7.50;99.90
13354;DHT22;6746;50.892;4.064;2023-04-26T07:31:01;7.70;99.90
13354;DHT22;6746;50.892;4.064;2023-04-26T07:33:30;8.00;99.90
13354;DHT22;6746;50.892;4.064;2023-04-26T07:36:00;8.20;99.90
13354;DHT22;6746;50.892;4.064;2023-04-26T07:38:29;8.50;99.90
13354;DHT22;6746;50.892;4.064;2023-04-26T07:40:58;8.50;99.90
13354;DHT22;6746;50.892;4.064;2023-04-26T07:43:28;8.60;99.90
13354;DHT22;6746;50.892;4.064;2023-04-26T07:45:59;8.70;99.90
13354;DHT22;6746;50.892;4.064;2023-04-26T07:48:38;8.80;99.90
13354;DHT22;6746;50.892;4.064;2023-04-26T07:51:16;8.80;99.90
13354;DHT22;6746;50.892;4.064;2023-04-26T07:53:53;9.00;99.90
13354;DHT22;6746;50.892;4.064;2023-04-26T07:56:24;9.20;99.90
13354;DHT22;6746;50.892;4.064;2023-04-26T07:59:02;9.50;99.90
13354;DHT22;6746;50.892;4.064;2023-04-26T08:01:50;9.70;99.90
13354;DHT22;6746;50.892;4.064;2023-04-26T08:04:29;9.80;99.90
13354;DHT22;6746;50.892;4.064;2023-04-26T08:07:17;9.80;99.90
13354;DHT22;6746;50.892;4.064;2023-04-26T08:09:56;10.00;99.90
13354;DHT22;6746;50.892;4.064;2023-04-26T08:12:25;10.30;99.90
13354;DHT22;6746;50.892;4.064;2023-04-26T08:15:12;10.40;99.90
13354;DHT22;6746;50.892;4.064;2023-04-26T08:17:49;10.60;99.90
13354;DHT22;6746;50.892;4.064;2023-04-26T08:20:17;10.70;99.90
13354;DHT22;6746;50.892;4.064;2023-04-26T08:22:55;10.80;99.90
13354;DHT22;6746;50.892;4.064;2023-04-26T08:25:30;11.00;99.90
13354;DHT22;6746;50.892;4.064;2023-04-26T08:27:58;11.10;99.90
13354;DHT22;6746;50.892;4.064;2023-04-26T08:30:34;11.20;99.90
13354;DHT22;6746;50.892;4.064;2023-04-26T08:33:03;11.50;99.90
13354;DHT22;6746;50.892;4.064;2023-04-26T08:35:32;11.50;99.90
13354;DHT22;6746;50.892;4.064;2023-04-26T08:38:00;11.40;99.90
13354;DHT22;6746;50.892;4.064;2023-04-26T08:40:38;11.50;99.90
13354;DHT22;6746;50.892;4.064;2023-04-26T08:43:07;11.50;99.90
13354;DHT22;6746;50.892;4.064;2023-04-26T08:45:39;11.30;99.90
13354;DHT22;6746;50.892;4.064;2023-04-26T08:48:15;11.30;99.90
13354;DHT22;6746;50.892;4.064;2023-04-26T08:50:45;11.60;99.90
13354;DHT22;6746;50.892;4.064;2023-04-26T08:53:33;11.60;99.90
13354;DHT22;6746;50.892;4.064;2023-04-26T08:56:21;11.60;99.90
13354;DHT22;6746;50.892;4.064;2023-04-26T08:58:58;9.70;99.90
13354;DHT22;6746;50.892;4.064;2023-04-26T09:01:46;11.90;99.90
13354;DHT22;6746;50.892;4.064;2023-04-26T09:04:34;11.80;99.90
13354;DHT22;6746;50.892;4.064;2023-04-26T09:07:40;11.90;99.90
13354;DHT22;6746;50.892;4.064;2023-04-26T09:10:08;12.00;99.90
13354;DHT22;6746;50.892;4.064;2023-04-26T09:12:54;12.20;99.90
13354;DHT22;6746;50.892;4.064;2023-04-26T09:15:23;12.30;99.90
13354;DHT22;6746;50.892;4.064;2023-04-26T09:17:51;12.30;99.90
13354;DHT22;6746;50.892;4.064;2023-04-26T09:20:26;12.70;99.90
13354;DHT22;6746;50.892;4.064;2023-04-26T09:23:07;13.10;99.90
13354;DHT22;6746;50.892;4.064;2023-04-26T09:25:45;13.20;99.90
13354;DHT22;6746;50.892;4.064;2023-04-26T09:28:22;13.50;99.90
13354;DHT22;6746;50.892;4.064;2023-04-26T09:30:55;13.80;99.90
13354;DHT22;6746;50.892;4.064;2023-04-26T09:33:24;13.70;99.90
13354;DHT22;6746;50.892;4.064;2023-04-26T09:35:52;13.50;99.90
13354;DHT22;6746;50.892;4.064;2023-04-26T09:38:21;13.50;99.90
13354;DHT22;6746;50.892;4.064;2023-04-26T09:40:56;13.40;99.90
13354;DHT22;6746;50.892;4.064;2023-04-26T09:43:30;13.30;99.90
13354;DHT22;6746;50.892;4.064;2023-04-26T09:46:10;13.30;99.90
13354;DHT22;6746;50.892;4.064;2023-04-26T09:48:41;13.40;99.90
13354;DHT22;6746;50.892;4.064;2023-04-26T09:51:10;13.70;99.90
13354;DHT22;6746;50.892;4.064;2023-04-26T09:53:51;14.00;99.90
13354;DHT22;6746;50.892;4.064;2023-04-26T09:56:30;14.00;99.90
13354;DHT22;6746;50.892;4.064;2023-04-26T09:59:08;13.90;99.90
13354;DHT22;6746;50.892;4.064;2023-04-26T10:01:46;13.80;99.90
13354;DHT22;6746;50.892;4.064;2023-04-26T10:04:17;14.00;99.90
13354;DHT22;6746;50.892;4.064;2023-04-26T10:06:56;14.00;99.90
13354;DHT22;6746;50.892;4.064;2023-04-26T10:09:34;14.30;99.90
13354;DHT22;6746;50.892;4.064;2023-04-26T10:12:11;13.90;99.90
13354;DHT22;6746;50.892;4.064;2023-04-26T10:14:36;14.00;99.90
13354;DHT22;6746;50.892;4.064;2023-04-26T10:17:15;14.10;99.90
13354;DHT22;6746;50.892;4.064;2023-04-26T10:19:43;13.70;99.90
13354;DHT22;6746;50.892;4.064;2023-04-26T10:22:22;13.70;99.90
13354;DHT22;6746;50.892;4.064;2023-04-26T10:24:58;13.80;99.90
13354;DHT22;6746;50.892;4.064;2023-04-26T10:30:21;14.40;99.90
13354;DHT22;6746;50.892;4.064;2023-04-26T10:35:34;14.60;99.90
13354;DHT22;6746;50.892;4.064;2023-04-26T10:38:12;14.50;99.90
13354;DHT22;6746;50.892;4.064;2023-04-26T10:40:50;14.40;99.90
13354;DHT22;6746;50.892;4.064;2023-04-26T10:43:27;14.00;99.90
13354;DHT22;6746;50.892;4.064;2023-04-26T10:45:55;14.20;99.90
13354;DHT22;6746;50.892;4.064;2023-04-26T10:53:33;13.70;99.90
13354;DHT22;6746;50.892;4.064;2023-04-26T10:59:13;13.90;99.90
13354;DHT22;6746;50.892;4.064;2023-04-26T11:01:45;13.90;99.90
13354;DHT22;6746;50.892;4.064;2023-04-26T11:04:13;14.40;99.90
13354;DHT22;6746;50.892;4.064;2023-04-26T11:06:54;14.30;99.90
13354;DHT22;6746;50.892;4.064;2023-04-26T11:12:10;13.80;99.90
13354;DHT22;6746;50.892;4.064;2023-04-26T11:14:38;13.90;99.90
13354;DHT22;6746;50.892;4.064;2023-04-26T11:17:09;14.00;99.90
13354;DHT22;6746;50.892;4.064;2023-04-26T11:19:39;14.20;99.90
13354;DHT22;6746;50.892;4.064;2023-04-26T11:22:20;14.50;99.90
13354;DHT22;6746;50.892;4.064;2023-04-26T11:24:48;14.60;99.90
13354;DHT22;6746;50.892;4.064;2023-04-26T11:27:17;14.60;99.90
13354;DHT22;6746;50.892;4.064;2023-04-26T11:29:46;14.60;99.90
13354;DHT22;6746;50.892;4.064;2023-04-26T11:32:15;14.80;99.90
13354;DHT22;6746;50.892;4.064;2023-04-26T11:34:46;15.20;99.90
13354;DHT22;6746;50.892;4.064;2023-04-26T11:37:16;15.30;99.90
13354;DHT22;6746;50.892;4.064;2023-04-26T11:39:45;15.30;99.90
13354;DHT22;6746;50.892;4.064;2023-04-26T11:42:14;15.30;99.90
13354;DHT22;6746;50.892;4.064;2023-04-26T11:44:55;15.10;99.90
13354;DHT22;6746;50.892;4.064;2023-04-26T11:47:34;15.00;99.90
13354;DHT22;6746;50.892;4.064;2023-04-26T11:50:12;15.10;99.90
13354;DHT22;6746;50.892;4.064;2023-04-26T11:52:50;15.20;99.90
13354;DHT22;6746;50.892;4.064;2023-04-26T11:55:27;15.30;99.90
13354;DHT22;6746;50.892;4.064;2023-04-26T11:57:55;15.20;99.90
13354;DHT22;6746;50.892;4.064;2023-04-26T12:00:29;15.10;99.90
13354;DHT22;6746;50.892;4.064;2023-04-26T12:03:03;15.10;99.90
13354;DHT22;6746;50.892;4.064;2023-04-26T12:05:52;15.20;99.90
13354;DHT22;6746;50.892;4.064;2023-04-26T12:08:23;15.20;99.90
13354;DHT22;6746;50.892;4.064;2023-04-26T12:10:52;15.20;99.90
13354;DHT22;6746;50.892;4.064;2023-04-26T12:13:23;15.30;99.90
13354;DHT22;6746;50.892;4.064;2023-04-26T12:15:52;15.10;99.90
13354;DHT22;6746;50.892;4.064;2023-04-26T12:18:30;15.00;99.90
13354;DHT22;6746;50.892;4.064;2023-04-26T12:21:02;14.70;99.90
13354;DHT22;6746;50.892;4.064;2023-04-26T12:23:37;14.80;99.90
13354;DHT22;6746;50.892;4.064;2023-04-26T12:26:15;14.50;99.90
13354;DHT22;6746;50.892;4.064;2023-04-26T12:28:44;14.40;99.90
13354;DHT22;6746;50.892;4.064;2023-04-26T12:31:21;14.60;99.90
13354;DHT22;6746;50.892;4.064;2023-04-26T12:33:49;14.30;99.90
13354;DHT22;6746;50.892;4.064;2023-04-26T12:36:28;14.30;99.90
13354;DHT22;6746;50.892;4.064;2023-04-26T12:39:06;14.40;99.90
13354;DHT22;6746;50.892;4.064;2023-04-26T12:41:44;14.20;99.90
13354;DHT22;6746;50.892;4.064;2023-04-26T12:44:16;14.30;99.90
13354;DHT22;6746;50.892;4.064;2023-04-26T12:46:45;14.00;99.90
13354;DHT22;6746;50.892;4.064;2023-04-26T12:49:23;14.10;99.90
13354;DHT22;6746;50.892;4.064;2023-04-26T12:51:56;13.70;99.90
13354;DHT22;6746;50.892;4.064;2023-04-26T12:54:25;13.50;99.90
13354;DHT22;6746;50.892;4.064;2023-04-26T12:57:02;13.90;99.90
13354;DHT22;6746;50.892;4.064;2023-04-26T12:59:30;14.30;99.90
13354;DHT22;6746;50.892;4.064;2023-04-26T13:02:02;14.20;99.90
13354;DHT22;6746;50.892;4.064;2023-04-26T13:04:31;14.40;99.90
13354;DHT22;6746;50.892;4.064;2023-04-26T13:07:09;14.50;99.90
13354;DHT22;6746;50.892;4.064;2023-04-26T13:09:41;14.60;99.90
13354;DHT22;6746;50.892;4.064;2023-04-26T13:12:10;14.80;99.90
13354;DHT22;6746;50.892;4.064;2023-04-26T13:14:46;14.80;99.90
13354;DHT22;6746;50.892;4.064;2023-04-26T13:17:15;14.50;99.90
13354;DHT22;6746;50.892;4.064;2023-04-26T13:19:53;14.50;99.90
13354;DHT22;6746;50.892;4.064;2023-04-26T13:22:32;14.70;99.90
13354;DHT22;6746;50.892;4.064;2023-04-26T13:25:10;14.60;99.90
13354;DHT22;6746;50.892;4.064;2023-04-26T13:27:56;14.70;99.90
13354;DHT22;6746;50.892;4.064;2023-04-26T13:30:25;14.90;99.90
13354;DHT22;6746;50.892;4.064;2023-04-26T13:32:57;14.70;99.90
13354;DHT22;6746;50.892;4.064;2023-04-26T13:35:26;14.70;99.90
13354;DHT22;6746;50.892;4.064;2023-04-26T13:38:05;15.00;99.90
13354;DHT22;6746;50.892;4.064;2023-04-26T13:40:43;14.80;99.90
13354;DHT22;6746;50.892;4.064;2023-04-26T13:43:19;14.70;99.90
13354;DHT22;6746;50.892;4.064;2023-04-26T13:45:48;14.60;99.90
13354;DHT22;6746;50.892;4.064;2023-04-26T13:48:20;14.90;99.90
13354;DHT22;6746;50.892;4.064;2023-04-26T13:50:49;14.50;99.90
13354;DHT22;6746;50.892;4.064;2023-04-26T13:53:26;14.30;99.90
13354;DHT22;6746;50.892;4.064;2023-04-26T13:55:54;13.90;99.90
13354;DHT22;6746;50.892;4.064;2023-04-26T13:58:23;14.20;99.90
13354;DHT22;6746;50.892;4.064;2023-04-26T14:00:52;14.50;99.90
13354;DHT22;6746;50.892;4.064;2023-04-26T14:03:26;14.50;99.90
13354;DHT22;6746;50.892;4.064;2023-04-26T14:05:55;14.80;99.90
13354;DHT22;6746;50.892;4.064;2023-04-26T14:08:33;15.00;99.90
13354;DHT22;6746;50.892;4.064;2023-04-26T14:11:11;15.30;99.90
13354;DHT22;6746;50.892;4.064;2023-04-26T14:13:42;15.40;99.90
13354;DHT22;6746;50.892;4.064;2023-04-26T14:16:11;15.40;99.90
13354;DHT22;6746;50.892;4.064;2023-04-26T14:18:43;15.20;99.90
13354;DHT22;6746;50.892;4.064;2023-04-26T14:21:12;15.10;99.90
13354;DHT22;6746;50.892;4.064;2023-04-26T14:23:50;15.00;99.90
13354;DHT22;6746;50.892;4.064;2023-04-26T14:26:29;15.00;99.90
13354;DHT22;6746;50.892;4.064;2023-04-26T14:29:07;15.00;99.90
13354;DHT22;6746;50.892;4.064;2023-04-26T14:31:45;14.70;99.90
13354;DHT22;6746;50.892;4.064;2023-04-26T14:34:25;14.10;99.90
13354;DHT22;6746;50.892;4.064;2023-04-26T14:36:54;14.20;99.90
13354;DHT22;6746;50.892;4.064;2023-04-26T14:39:27;14.30;99.90
13354;DHT22;6746;50.892;4.064;2023-04-26T14:41:56;14.20;99.90
13354;DHT22;6746;50.892;4.064;2023-04-26T14:44:35;13.90;99.90
13354;DHT22;6746;50.892;4.064;2023-04-26T14:47:13;13.80;99.90
13354;DHT22;6746;50.892;4.064;2023-04-26T14:49:51;14.10;99.90
13354;DHT22;6746;50.892;4.064;2023-04-26T14:52:32;14.00;99.90
13354;DHT22;6746;50.892;4.064;2023-04-26T14:55:04;14.00;99.90
13354;DHT22;6746;50.892;4.064;2023-04-26T14:57:33;14.10;99.90
13354;DHT22;6746;50.892;4.064;2023-04-26T15:00:11;14.20;99.90
13354;DHT22;6746;50.892;4.064;2023-04-26T15:02:50;14.30;99.90
13354;DHT22;6746;50.892;4.064;2023-04-26T15:05:18;14.50;99.90
13354;DHT22;6746;50.892;4.064;2023-04-26T15:07:46;14.40;99.90
13354;DHT22;6746;50.892;4.064;2023-04-26T15:10:18;14.20;99.90
13354;DHT22;6746;50.892;4.064;2023-04-26T15:12:47;14.20;99.90
13354;DHT22;6746;50.892;4.064;2023-04-26T15:15:26;14.10;99.90
13354;DHT22;6746;50.892;4.064;2023-04-26T15:17:55;14.20;99.90
13354;DHT22;6746;50.892;4.064;2023-04-26T15:20:37;14.30;99.90
13354;DHT22;6746;50.892;4.064;2023-04-26T15:23:11;14.40;99.90
13354;DHT22;6746;50.892;4.064;2023-04-26T15:25:50;14.70;99.90
13354;DHT22;6746;50.892;4.064;2023-04-26T15:28:28;14.80;99.90
13354;DHT22;6746;50.892;4.064;2023-04-26T15:31:07;14.50;99.90
13354;DHT22;6746;50.892;4.064;2023-04-26T15:33:44;14.70;99.90
13354;DHT22;6746;50.892;4.064;2023-04-26T15:36:25;14.80;99.90
13354;DHT22;6746;50.892;4.064;2023-04-26T15:39:04;14.90;99.90
13354;DHT22;6746;50.892;4.064;2023-04-26T15:41:40;15.10;99.90
13354;DHT22;6746;50.892;4.064;2023-04-26T15:44:09;15.10;99.90
13354;DHT22;6746;50.892;4.064;2023-04-26T15:46:46;14.70;99.90
13354;DHT22;6746;50.892;4.064;2023-04-26T15:49:14;14.60;99.90
13354;DHT22;6746;50.892;4.064;2023-04-26T15:51:53;14.60;99.90
13354;DHT22;6746;50.892;4.064;2023-04-26T15:54:24;14.60;99.90
13354;DHT22;6746;50.892;4.064;2023-04-26T15:56:55;14.50;99.90
13354;DHT22;6746;50.892;4.064;2023-04-26T15:59:24;14.40;99.90
13354;DHT22;6746;50.892;4.064;2023-04-26T16:01:55;14.00;99.90
13354;DHT22;6746;50.892;4.064;2023-04-26T16:04:24;13.90;99.90
13354;DHT22;6746;50.892;4.064;2023-04-26T16:06:53;14.00;99.90
13354;DHT22;6746;50.892;4.064;2023-04-26T16:09:26;13.90;99.90
13354;DHT22;6746;50.892;4.064;2023-04-26T16:11:55;13.90;99.90
13354;DHT22;6746;50.892;4.064;2023-04-26T16:14:28;13.60;99.90
13354;DHT22;6746;50.892;4.064;2023-04-26T16:16:59;13.50;99.90
13354;DHT22;6746;50.892;4.064;2023-04-26T16:19:35;13.40;99.90
13354;DHT22;6746;50.892;4.064;2023-04-26T16:22:03;13.30;99.90
13354;DHT22;6746;50.892;4.064;2023-04-26T16:24:39;13.20;99.90
13354;DHT22;6746;50.892;4.064;2023-04-26T16:27:08;13.30;99.90
13354;DHT22;6746;50.892;4.064;2023-04-26T16:29:36;13.20;99.90
13354;DHT22;6746;50.892;4.064;2023-04-26T16:32:05;13.10;99.90
13354;DHT22;6746;50.892;4.064;2023-04-26T16:34:43;13.10;99.90
13354;DHT22;6746;50.892;4.064;2023-04-26T16:37:30;13.10;99.90
13354;DHT22;6746;50.892;4.064;2023-04-26T16:40:08;13.00;99.90
13354;DHT22;6746;50.892;4.064;2023-04-26T16:42:37;13.10;99.90
13354;DHT22;6746;50.892;4.064;2023-04-26T16:45:05;12.90;99.90
13354;DHT22;6746;50.892;4.064;2023-04-26T16:47:34;13.00;99.90
13354;DHT22;6746;50.892;4.064;2023-04-26T16:50:02;12.90;99.90
13354;DHT22;6746;50.892;4.064;2023-04-26T16:52:43;13.00;99.90
13354;DHT22;6746;50.892;4.064;2023-04-26T16:55:13;12.90;99.90
13354;DHT22;6746;50.892;4.064;2023-04-26T16:57:41;12.90;99.90
13354;DHT22;6746;50.892;4.064;2023-04-26T17:00:10;12.90;99.90
13354;DHT22;6746;50.892;4.064;2023-04-26T17:02:38;12.90;99.90
13354;DHT22;6746;50.892;4.064;2023-04-26T17:05:06;12.90;99.90
13354;DHT22;6746;50.892;4.064;2023-04-26T17:07:35;12.90;99.90